Aviation Digital Data Service (ADDS)

Output produced by METARs form (1306 UTC 27 February 2015)
found at http://aviationweather.gov/adds/metars/
 
KDUJ 271120Z 2712/2812 30004KT P6SM SKC 
     FM271500 30005KT P6SM FEW035